createdAt,value
2018-06-27T00:00:49.280Z,83.37
2018-06-27T00:01:49.282Z,83.42
2018-06-27T00:02:49.287Z,83.42
2018-06-27T00:03:49.285Z,83.81
2018-06-27T00:04:49.291Z,83.65
2018-06-27T00:05:49.294Z,83.52
2018-06-27T00:06:49.298Z,83.33
2018-06-27T00:07:49.301Z,83.42
2018-06-27T00:08:49.300Z,82.85
2018-06-27T00:09:49.300Z,83.33
2018-06-27T00:10:49.308Z,83.52
2018-06-27T00:11:49.312Z,83.42
2018-06-27T00:12:49.313Z,83.71
2018-06-27T00:13:49.316Z,83.52
2018-06-27T00:14:49.315Z,83.91
2018-06-27T00:15:49.320Z,84.09
2018-06-27T00:16:49.324Z,84.86
2018-06-27T00:17:49.325Z,84.77
2018-06-27T00:18:49.326Z,85.11
2018-06-27T00:19:49.329Z,84.86
2018-06-27T00:20:49.386Z,85.01
2018-06-27T00:21:49.335Z,85.49
2018-06-27T00:22:49.337Z,85.49
2018-06-27T00:23:49.340Z,85.39
2018-06-27T00:24:49.342Z,85.58
2018-06-27T00:25:49.348Z,85.11
2018-06-27T00:26:49.352Z,85.58
2018-06-27T00:27:49.353Z,85.49
2018-06-27T00:28:49.352Z,85.49
2018-06-27T00:29:49.355Z,85.49
2018-06-27T00:30:49.357Z,85.88
2018-06-27T00:31:49.352Z,85.78
2018-06-27T00:32:49.367Z,85.68
2018-06-27T00:33:49.365Z,85.68
2018-06-27T00:34:49.367Z,85.58
2018-06-27T00:35:49.368Z,85.49
2018-06-27T00:36:49.369Z,85.78
2018-06-27T00:37:49.374Z,85.58
2018-06-27T00:38:49.373Z,86.64
2018-06-27T00:39:49.374Z,86.35
2018-06-27T00:40:49.377Z,85.97
2018-06-27T00:41:49.377Z,87.02
2018-06-27T00:42:49.380Z,86.12
2018-06-27T00:43:49.379Z,86.60
2018-06-27T00:44:49.386Z,87.08
2018-06-27T00:45:49.388Z,86.98
2018-06-27T00:46:49.386Z,87.65
2018-06-27T00:47:49.396Z,87.46
2018-06-27T00:48:49.386Z,87.55
2018-06-27T00:49:49.394Z,87.65
2018-06-27T00:50:49.396Z,87.61
2018-06-27T00:51:49.399Z,87.84
2018-06-27T00:52:49.397Z,87.74
2018-06-27T00:53:49.401Z,87.51
2018-06-27T00:54:49.408Z,88.18
2018-06-27T00:55:49.405Z,87.99
2018-06-27T00:56:49.412Z,87.84
2018-06-27T00:57:49.413Z,88.03
2018-06-27T00:58:49.407Z,87.80
2018-06-27T00:59:49.405Z,87.90
2018-06-27T01:00:49.414Z,87.99
2018-06-27T01:01:49.413Z,88.76
2018-06-27T01:02:49.414Z,88.56
2018-06-27T01:03:49.417Z,88.47
2018-06-27T01:04:49.418Z,88.95
2018-06-27T01:05:49.418Z,88.95
2018-06-27T01:06:49.419Z,89.04
2018-06-27T01:07:49.424Z,88.85
2018-06-27T01:08:49.421Z,89.81
2018-06-27T01:09:49.422Z,89.81
2018-06-27T01:10:49.421Z,89.81
2018-06-27T01:11:49.427Z,89.81
2018-06-27T01:12:49.427Z,90.19
2018-06-27T01:13:49.432Z,90.29
2018-06-27T01:14:49.435Z,90.29
2018-06-27T01:15:49.436Z,90.39
2018-06-27T01:16:49.436Z,90.58
2018-06-27T01:17:49.440Z,90.58
2018-06-27T01:18:49.437Z,90.15
2018-06-27T01:19:49.438Z,90.24
2018-06-27T01:20:49.438Z,90.63
2018-06-27T01:21:49.439Z,90.48
2018-06-27T01:22:49.441Z,90.29
2018-06-27T01:23:49.492Z,90.34
2018-06-27T01:24:49.437Z,90.53
2018-06-27T01:25:49.447Z,90.34
2018-06-27T01:26:49.443Z,90.34
2018-06-27T01:27:49.448Z,90.34
2018-06-27T01:28:49.449Z,90.82
2018-06-27T01:29:49.450Z,90.24
2018-06-27T01:30:49.453Z,90.34
2018-06-27T01:31:49.453Z,90.24
2018-06-27T01:32:49.456Z,90.44
2018-06-27T01:33:49.456Z,90.72
2018-06-27T01:34:49.457Z,91.58
2018-06-27T01:35:49.459Z,90.91
2018-06-27T01:36:49.457Z,91.30
2018-06-27T01:37:49.459Z,91.68
2018-06-27T01:38:49.461Z,91.39
2018-06-27T01:39:49.462Z,91.97
2018-06-27T01:40:49.462Z,92.06
2018-06-27T01:41:49.463Z,92.30
2018-06-27T01:42:49.465Z,92.11
2018-06-27T01:43:49.466Z,92.69
2018-06-27T01:44:49.463Z,92.40
2018-06-27T01:45:49.466Z,92.69
2018-06-27T01:46:49.464Z,92.97
2018-06-27T01:47:49.467Z,92.88
2018-06-27T01:48:49.470Z,92.40
2018-06-27T01:49:49.472Z,92.40
2018-06-27T01:50:49.477Z,92.59
2018-06-27T01:51:49.473Z,93.16
2018-06-27T01:52:49.475Z,92.97
2018-06-27T01:53:49.476Z,92.40
2018-06-27T01:54:49.476Z,92.40
2018-06-27T01:55:49.479Z,92.49
2018-06-27T01:56:49.477Z,92.59
2018-06-27T01:57:49.479Z,92.49
2018-06-27T01:58:49.480Z,92.25
2018-06-27T01:59:49.480Z,92.16
2018-06-27T02:00:49.474Z,92.35
2018-06-27T02:01:49.484Z,92.30
2018-06-27T02:02:49.485Z,92.21
2018-06-27T02:03:49.486Z,92.21
2018-06-27T02:04:49.484Z,92.21
2018-06-27T02:05:49.505Z,92.11
2018-06-27T02:06:49.486Z,92.30
2018-06-27T02:07:49.488Z,92.30
2018-06-27T02:08:49.481Z,92.30
2018-06-27T02:09:49.489Z,92.21
2018-06-27T02:10:49.487Z,92.30
2018-06-27T02:11:49.490Z,92.21
2018-06-27T02:12:49.491Z,92.21
2018-06-27T02:13:49.489Z,92.59
2018-06-27T02:14:49.492Z,92.59
2018-06-27T02:15:49.493Z,92.97
2018-06-27T02:16:49.488Z,92.78
2018-06-27T02:17:49.494Z,92.78
2018-06-27T02:18:49.496Z,92.88
2018-06-27T02:19:49.499Z,92.30
2018-06-27T02:20:49.497Z,92.59
2018-06-27T02:21:49.496Z,92.97
2018-06-27T02:22:49.492Z,92.78
2018-06-27T02:23:49.499Z,93.35
2018-06-27T02:24:49.500Z,93.16
2018-06-27T02:25:49.493Z,93.16
2018-06-27T02:26:49.501Z,93.26
2018-06-27T02:27:49.507Z,93.45
2018-06-27T02:28:49.503Z,93.64
2018-06-27T02:29:49.501Z,93.26
2018-06-27T02:30:49.501Z,92.97
2018-06-27T02:31:49.504Z,93.26
2018-06-27T02:32:49.501Z,92.93
2018-06-27T02:33:49.503Z,93.60
2018-06-27T02:34:49.506Z,93.98
2018-06-27T02:35:49.506Z,93.98
2018-06-27T02:36:49.505Z,94.07
2018-06-27T02:37:49.506Z,94.07
2018-06-27T02:38:49.507Z,94.02
2018-06-27T02:39:49.506Z,93.93
2018-06-27T02:40:49.511Z,93.69
2018-06-27T02:41:49.505Z,93.74
2018-06-27T02:42:49.513Z,93.50
2018-06-27T02:43:49.502Z,93.31
2018-06-27T02:44:49.503Z,93.40
2018-06-27T02:45:49.509Z,93.60
2018-06-27T02:46:49.512Z,93.55
2018-06-27T02:47:49.513Z,93.88
2018-06-27T02:48:49.519Z,93.50
2018-06-27T02:49:49.614Z,93.60
2018-06-27T02:50:49.513Z,93.88
2018-06-27T02:51:49.514Z,93.79
2018-06-27T02:52:49.513Z,93.79
2018-06-27T02:53:49.512Z,93.69
2018-06-27T02:54:49.513Z,93.40
2018-06-27T02:55:49.514Z,93.60
2018-06-27T02:56:49.515Z,92.83
2018-06-27T02:57:49.513Z,92.93
2018-06-27T02:58:49.519Z,92.74
2018-06-27T02:59:49.516Z,92.93
2018-06-27T03:00:49.517Z,92.83
2018-06-27T03:01:49.509Z,92.83
2018-06-27T03:02:49.516Z,92.74
2018-06-27T03:03:49.519Z,92.74
2018-06-27T03:04:49.518Z,92.64
2018-06-27T03:05:49.517Z,93.50
2018-06-27T03:06:49.521Z,93.21
2018-06-27T03:07:49.521Z,93.12
2018-06-27T03:08:49.520Z,93.60
2018-06-27T03:09:49.519Z,92.74
2018-06-27T03:10:49.520Z,92.74
2018-06-27T03:11:49.521Z,92.35
2018-06-27T03:12:49.517Z,92.45
2018-06-27T03:13:49.521Z,92.54
2018-06-27T03:14:49.521Z,92.54
2018-06-27T03:15:49.521Z,92.07
2018-06-27T03:16:49.521Z,91.78
2018-06-27T03:17:49.521Z,91.59
2018-06-27T03:18:49.523Z,91.88
2018-06-27T03:19:49.523Z,92.16
2018-06-27T03:20:49.523Z,91.49
2018-06-27T03:21:49.524Z,91.49
2018-06-27T03:22:49.521Z,91.49
2018-06-27T03:23:49.523Z,91.39
2018-06-27T03:24:49.522Z,90.82
2018-06-27T03:25:49.525Z,90.82
2018-06-27T03:26:49.527Z,90.82
2018-06-27T03:27:49.525Z,90.16
2018-06-27T03:28:49.526Z,89.87
2018-06-27T03:29:49.522Z,90.53
2018-06-27T03:30:49.529Z,90.34
2018-06-27T03:31:49.527Z,90.44
2018-06-27T03:32:49.528Z,90.82
2018-06-27T03:33:49.541Z,90.63
2018-06-27T03:34:49.530Z,91.11
2018-06-27T03:35:49.533Z,91.02
2018-06-27T03:36:49.529Z,91.11
2018-06-27T03:37:49.532Z,91.39
2018-06-27T03:38:49.532Z,91.11
2018-06-27T03:39:49.531Z,90.63
2018-06-27T03:40:49.531Z,90.92
2018-06-27T03:41:49.533Z,90.16
2018-06-27T03:42:49.532Z,89.87
2018-06-27T03:43:49.532Z,90.25
2018-06-27T03:44:49.530Z,90.25
2018-06-27T03:45:49.533Z,89.48
2018-06-27T03:46:49.533Z,89.67
2018-06-27T03:47:49.534Z,89.48
2018-06-27T03:48:49.536Z,89.48
2018-06-27T03:49:49.538Z,89.48
2018-06-27T03:50:49.534Z,89.87
2018-06-27T03:51:49.535Z,89.96
2018-06-27T03:52:49.536Z,89.67
2018-06-27T03:53:49.539Z,89.48
2018-06-27T03:54:49.537Z,89.20
2018-06-27T03:55:49.537Z,89.10
2018-06-27T03:56:49.546Z,88.53
2018-06-27T03:57:49.538Z,88.81
2018-06-27T03:58:49.535Z,88.91
2018-06-27T03:59:49.540Z,88.81
2018-06-27T04:00:49.533Z,88.53
2018-06-27T04:01:49.539Z,88.53
2018-06-27T04:02:49.541Z,88.62
2018-06-27T04:03:49.540Z,89.10
2018-06-27T04:04:49.543Z,89.10
2018-06-27T04:05:49.542Z,88.62
2018-06-27T04:06:49.564Z,88.81
2018-06-27T04:07:49.544Z,88.43
2018-06-27T04:08:49.544Z,88.62
2018-06-27T04:09:49.543Z,88.05
2018-06-27T04:10:49.545Z,87.76
2018-06-27T04:11:49.549Z,87.95
2018-06-27T04:12:49.611Z,87.66
2018-06-27T04:13:49.552Z,87.38
2018-06-27T04:14:49.546Z,87.57
2018-06-27T04:15:49.551Z,87.29
2018-06-27T04:16:49.544Z,87.19
2018-06-27T04:17:49.550Z,87.09
2018-06-27T04:18:49.551Z,86.80
2018-06-27T04:19:49.549Z,86.66
2018-06-27T04:20:49.545Z,86.18
2018-06-27T04:21:49.550Z,86.28
2018-06-27T04:22:49.551Z,86.57
2018-06-27T04:23:49.552Z,86.37
2018-06-27T04:24:49.552Z,85.71
2018-06-27T04:25:49.552Z,85.61
2018-06-27T04:26:49.555Z,85.51
2018-06-27T04:27:49.554Z,85.80
2018-06-27T04:28:49.556Z,85.22
2018-06-27T04:29:49.559Z,85.51
2018-06-27T04:30:49.557Z,85.41
2018-06-27T04:31:49.558Z,85.41
2018-06-27T04:32:49.553Z,85.32
2018-06-27T04:33:49.560Z,85.22
2018-06-27T04:34:49.563Z,85.41
2018-06-27T04:35:49.582Z,84.84
2018-06-27T04:36:49.571Z,84.84
2018-06-27T04:37:49.565Z,84.59
2018-06-27T04:38:49.566Z,84.50
2018-06-27T04:39:49.565Z,84.55
2018-06-27T04:40:49.566Z,84.69
2018-06-27T04:41:49.561Z,84.22
2018-06-27T04:42:49.571Z,84.41
2018-06-27T04:43:49.569Z,84.31
2018-06-27T04:44:49.570Z,84.31
2018-06-27T04:45:49.573Z,84.31
2018-06-27T04:46:49.572Z,84.50
2018-06-27T04:47:49.571Z,84.31
2018-06-27T04:48:49.573Z,84.02
2018-06-27T04:49:49.582Z,83.93
2018-06-27T04:50:49.577Z,83.93
2018-06-27T04:51:49.576Z,83.83
2018-06-27T04:52:49.579Z,83.93
2018-06-27T04:53:49.581Z,83.93
2018-06-27T04:54:49.593Z,84.12
2018-06-27T04:55:49.583Z,84.12
2018-06-27T04:56:49.581Z,84.22
2018-06-27T04:57:49.585Z,84.69
2018-06-27T04:58:49.588Z,84.88
2018-06-27T04:59:49.591Z,84.79
2018-06-27T05:00:49.587Z,84.88
2018-06-27T05:01:49.665Z,84.69
2018-06-27T05:02:49.589Z,84.41
2018-06-27T05:03:49.593Z,84.59
2018-06-27T05:04:49.595Z,84.41
2018-06-27T05:05:49.594Z,84.31
2018-06-27T05:06:49.593Z,84.12
2018-06-27T05:07:49.597Z,83.93
2018-06-27T05:08:49.597Z,83.73
2018-06-27T05:09:49.614Z,83.73
2018-06-27T05:10:49.600Z,83.45
2018-06-27T05:11:49.606Z,83.49
2018-06-27T05:12:49.604Z,83.30
2018-06-27T05:13:49.606Z,83.20
2018-06-27T05:14:49.606Z,83.01
2018-06-27T05:15:49.609Z,82.92
2018-06-27T05:16:49.604Z,82.73
2018-06-27T05:17:49.610Z,83.01
2018-06-27T05:18:49.614Z,83.49
2018-06-27T05:19:49.615Z,83.20
2018-06-27T05:20:49.615Z,83.11
2018-06-27T05:21:49.624Z,83.20
2018-06-27T05:22:49.621Z,82.43
2018-06-27T05:23:49.622Z,82.06
2018-06-27T05:24:49.623Z,82.15
2018-06-27T05:25:49.621Z,81.77
2018-06-27T05:26:49.623Z,81.57
2018-06-27T05:27:49.628Z,81.43
2018-06-27T05:28:49.628Z,81.71
2018-06-27T05:29:49.630Z,80.94
2018-06-27T05:30:49.636Z,80.85
2018-06-27T05:31:49.634Z,80.76
2018-06-27T05:32:49.632Z,81.13
2018-06-27T05:33:49.642Z,81.04
2018-06-27T05:34:49.645Z,81.13
2018-06-27T05:35:49.643Z,81.23
2018-06-27T05:36:49.646Z,80.94
2018-06-27T05:37:49.647Z,81.43
2018-06-27T05:38:49.648Z,81.62
2018-06-27T05:39:49.650Z,81.62
2018-06-27T05:40:49.646Z,81.90
2018-06-27T05:41:49.657Z,81.81
2018-06-27T05:42:49.657Z,81.90
2018-06-27T05:43:49.657Z,82.48
2018-06-27T05:44:49.661Z,82.57
2018-06-27T05:45:49.662Z,82.63
2018-06-27T05:46:49.665Z,82.73
2018-06-27T05:47:49.667Z,83.49
2018-06-27T05:48:49.668Z,83.20
2018-06-27T05:49:49.669Z,83.20
2018-06-27T05:50:49.672Z,83.59
2018-06-27T05:51:49.674Z,83.53
2018-06-27T05:52:49.675Z,83.92
2018-06-27T05:53:49.688Z,83.34
2018-06-27T05:54:49.679Z,83.53
2018-06-27T05:55:49.681Z,83.44
2018-06-27T05:56:49.686Z,82.76
2018-06-27T05:57:49.682Z,82.76
2018-06-27T05:58:49.687Z,83.05
2018-06-27T05:59:49.687Z,82.86
2018-06-27T06:00:49.693Z,82.86
2018-06-27T06:01:49.691Z,83.05
2018-06-27T06:02:49.695Z,83.53
2018-06-27T06:03:49.697Z,82.86
2018-06-27T06:04:49.705Z,83.05
2018-06-27T06:05:49.696Z,82.76
2018-06-27T06:06:49.702Z,83.34
2018-06-27T06:07:49.705Z,83.44
2018-06-27T06:08:49.706Z,83.15
2018-06-27T06:09:49.712Z,83.05
2018-06-27T06:10:49.706Z,83.09
2018-06-27T06:11:49.711Z,82.42
2018-06-27T06:12:49.718Z,82.62
2018-06-27T06:13:49.716Z,82.52
2018-06-27T06:14:49.715Z,81.85
2018-06-27T06:15:49.720Z,82.23
2018-06-27T06:16:49.723Z,82.04
2018-06-27T06:17:49.722Z,82.32
2018-06-27T06:18:49.725Z,82.71
2018-06-27T06:19:49.756Z,82.52
2018-06-27T06:20:49.730Z,82.42
2018-06-27T06:21:49.731Z,82.71
2018-06-27T06:22:49.739Z,82.81
2018-06-27T06:23:49.736Z,82.71
2018-06-27T06:24:49.737Z,82.14
2018-06-27T06:25:49.733Z,82.32
2018-06-27T06:26:49.745Z,82.23
2018-06-27T06:27:49.747Z,82.42
2018-06-27T06:28:49.744Z,82.81
2018-06-27T06:29:49.748Z,82.62
2018-06-27T06:30:49.751Z,82.62
2018-06-27T06:31:49.752Z,82.32
2018-06-27T06:32:49.757Z,82.08
2018-06-27T06:33:49.756Z,82.08
2018-06-27T06:34:49.754Z,81.70
2018-06-27T06:35:49.775Z,81.41
2018-06-27T06:36:49.761Z,81.12
2018-06-27T06:37:49.766Z,81.12
2018-06-27T06:38:49.768Z,81.41
2018-06-27T06:39:49.770Z,81.60
2018-06-27T06:40:49.820Z,81.07
2018-06-27T06:41:49.774Z,81.51
2018-06-27T06:42:49.778Z,81.16
2018-06-27T06:43:49.780Z,80.78
2018-06-27T06:44:49.781Z,80.78
2018-06-27T06:45:49.784Z,80.74
2018-06-27T06:46:49.788Z,81.31
2018-06-27T06:47:49.789Z,80.58
2018-06-27T06:48:49.790Z,80.68
2018-06-27T06:49:49.796Z,80.20
2018-06-27T06:50:49.799Z,80.30
2018-06-27T06:51:49.800Z,80.20
2018-06-27T06:52:49.804Z,80.40
2018-06-27T06:53:49.805Z,80.30
2018-06-27T06:54:49.814Z,79.63
2018-06-27T06:55:49.810Z,79.91
2018-06-27T06:56:49.812Z,80.01
2018-06-27T06:57:49.818Z,79.91
2018-06-27T06:58:49.908Z,79.72
2018-06-27T06:59:49.825Z,79.53
2018-06-27T07:00:49.837Z,79.44
2018-06-27T07:01:49.826Z,79.44
2018-06-27T07:02:49.828Z,79.53
2018-06-27T07:03:49.837Z,80.01
2018-06-27T07:04:49.853Z,79.14
2018-06-27T07:05:49.838Z,79.34
2018-06-27T07:06:49.841Z,78.86
2018-06-27T07:07:49.843Z,78.90
2018-06-27T07:08:49.846Z,78.99
2018-06-27T07:09:49.849Z,78.52
2018-06-27T07:10:49.852Z,78.23
2018-06-27T07:11:49.855Z,78.13
2018-06-27T07:12:49.859Z,78.03
2018-06-27T07:13:49.860Z,77.84
2018-06-27T07:14:49.863Z,78.70
2018-06-27T07:15:49.868Z,78.61
2018-06-27T07:16:49.869Z,77.75
2018-06-27T07:17:49.924Z,77.84
2018-06-27T07:18:49.875Z,77.36
2018-06-27T07:19:49.880Z,76.59
2018-06-27T07:20:49.875Z,76.79
2018-06-27T07:21:49.885Z,76.12
2018-06-27T07:22:49.892Z,76.02
2018-06-27T07:23:49.889Z,75.35
2018-06-27T07:24:49.896Z,75.92
2018-06-27T07:25:49.898Z,75.82
2018-06-27T07:26:49.900Z,76.15
2018-06-27T07:27:49.905Z,75.96
2018-06-27T07:28:49.910Z,76.06
2018-06-27T07:29:49.907Z,76.34
2018-06-27T07:30:49.918Z,75.96
2018-06-27T07:31:49.915Z,75.87
2018-06-27T07:32:49.919Z,75.48
2018-06-27T07:33:49.922Z,74.81
2018-06-27T07:34:49.942Z,74.81
2018-06-27T07:35:49.975Z,73.94
2018-06-27T07:36:49.931Z,74.62
2018-06-27T07:37:49.935Z,74.13
2018-06-27T07:38:49.938Z,73.94
2018-06-27T07:39:49.942Z,73.18
2018-06-27T07:40:49.954Z,72.69
2018-06-27T07:41:49.948Z,73.18
2018-06-27T07:42:49.951Z,72.79
2018-06-27T07:43:49.954Z,72.50
2018-06-27T07:44:49.960Z,72.12
2018-06-27T07:45:49.961Z,71.25
2018-06-27T07:46:49.966Z,71.93
2018-06-27T07:47:49.971Z,72.44
2018-06-27T07:48:49.970Z,71.29
2018-06-27T07:49:49.991Z,72.16
2018-06-27T07:50:49.981Z,71.39
2018-06-27T07:51:49.983Z,70.33
2018-06-27T07:52:49.987Z,70.04
2018-06-27T07:53:49.990Z,70.52
2018-06-27T07:54:49.993Z,71.29
2018-06-27T07:55:49.995Z,70.72
2018-06-27T07:56:50.001Z,71.67
2018-06-27T07:57:50.000Z,70.04
2018-06-27T07:58:50.006Z,69.56
2018-06-27T07:59:50.012Z,68.21
2018-06-27T08:00:50.009Z,68.02
2018-06-27T08:01:50.018Z,68.02
2018-06-27T08:02:50.022Z,67.83
2018-06-27T08:03:50.018Z,67.93
2018-06-27T08:04:50.027Z,68.12
2018-06-27T08:05:50.077Z,68.02
2018-06-27T08:06:50.036Z,68.51
2018-06-27T08:07:50.047Z,68.12
2018-06-27T08:08:50.040Z,68.02
2018-06-27T08:09:50.045Z,67.64
2018-06-27T08:10:50.052Z,66.97
2018-06-27T08:11:50.048Z,67.07
2018-06-27T08:12:50.053Z,67.25
2018-06-27T08:13:50.059Z,67.07
2018-06-27T08:14:50.062Z,66.97
2018-06-27T08:15:50.066Z,66.20
2018-06-27T08:16:50.068Z,66.33
2018-06-27T08:17:50.105Z,66.58
2018-06-27T08:18:50.078Z,66.49
2018-06-27T08:19:50.081Z,66.49
2018-06-27T08:20:50.084Z,66.68
2018-06-27T08:21:50.086Z,65.66
2018-06-27T08:22:50.090Z,65.84
2018-06-27T08:23:50.095Z,66.42
2018-06-27T08:24:50.099Z,66.10
2018-06-27T08:25:50.101Z,66.81
2018-06-27T08:26:50.105Z,66.52
2018-06-27T08:27:50.113Z,65.66
2018-06-27T08:28:50.111Z,65.84
2018-06-27T08:29:50.116Z,65.75
2018-06-27T08:30:50.120Z,66.49
2018-06-27T08:31:50.132Z,66.52
2018-06-27T08:32:50.127Z,66.14
2018-06-27T08:33:50.134Z,65.75
2018-06-27T08:34:50.135Z,64.89
2018-06-27T08:35:50.139Z,64.50
2018-06-27T08:36:50.145Z,64.92
2018-06-27T08:37:50.148Z,63.76
2018-06-27T08:38:50.152Z,63.28
2018-06-27T08:39:50.154Z,63.48
2018-06-27T08:40:50.157Z,63.28
2018-06-27T08:41:50.161Z,62.80
2018-06-27T08:42:50.161Z,62.80
2018-06-27T08:43:50.174Z,62.80
2018-06-27T08:44:50.174Z,62.90
2018-06-27T08:45:50.178Z,62.26
2018-06-27T08:46:50.186Z,62.35
2018-06-27T08:47:50.186Z,62.74
2018-06-27T08:48:50.190Z,62.45
2018-06-27T08:49:50.255Z,62.64
2018-06-27T08:50:50.204Z,62.54
2018-06-27T08:51:50.205Z,62.74
2018-06-27T08:52:50.212Z,62.45
2018-06-27T08:53:50.214Z,62.64
2018-06-27T08:54:50.218Z,62.74
2018-06-27T08:55:50.222Z,61.77
2018-06-27T08:56:50.226Z,61.19
2018-06-27T08:57:50.232Z,61.39
2018-06-27T08:58:50.301Z,61.65
2018-06-27T08:59:50.239Z,62.51
2018-06-27T09:00:50.247Z,62.61
2018-06-27T09:01:50.249Z,62.83
2018-06-27T09:02:50.254Z,62.74
2018-06-27T09:03:50.259Z,62.06
2018-06-27T09:04:50.256Z,61.97
2018-06-27T09:05:50.262Z,62.64
2018-06-27T09:06:50.280Z,63.02
2018-06-27T09:07:50.369Z,62.83
2018-06-27T09:08:50.283Z,62.83
2018-06-27T09:09:50.290Z,63.02
2018-06-27T09:10:50.292Z,62.64
2018-06-27T09:11:50.297Z,62.74
2018-06-27T09:12:50.361Z,63.12
2018-06-27T09:13:50.307Z,62.74
2018-06-27T09:14:50.313Z,62.64
2018-06-27T09:15:50.321Z,62.13
2018-06-27T09:16:50.319Z,62.45
2018-06-27T09:17:50.328Z,62.00
2018-06-27T09:18:50.333Z,61.04
2018-06-27T09:19:50.337Z,61.04
2018-06-27T09:20:50.341Z,61.71
2018-06-27T09:21:50.346Z,60.55
2018-06-27T09:22:50.350Z,60.65
2018-06-27T09:23:50.354Z,59.97
2018-06-27T09:24:50.360Z,60.27
2018-06-27T09:25:50.365Z,60.65
2018-06-27T09:26:50.371Z,60.46
2018-06-27T09:27:50.370Z,60.36
2018-06-27T09:28:50.373Z,61.13
2018-06-27T09:29:50.390Z,60.75
2018-06-27T09:30:50.386Z,61.04
2018-06-27T09:31:50.394Z,60.65
2018-06-27T09:32:50.402Z,60.55
2018-06-27T09:33:50.407Z,60.84
2018-06-27T09:34:50.415Z,60.55
2018-06-27T09:35:50.415Z,60.07
2018-06-27T09:36:50.421Z,59.43
2018-06-27T09:37:50.428Z,59.07
2018-06-27T09:38:50.434Z,58.40
2018-06-27T09:39:50.438Z,58.40
2018-06-27T09:40:50.443Z,58.23
2018-06-27T09:41:50.483Z,57.56
2018-06-27T09:42:50.454Z,57.85
2018-06-27T09:43:50.459Z,58.52
2018-06-27T09:44:50.469Z,58.04
2018-06-27T09:45:50.470Z,58.42
2018-06-27T09:46:50.476Z,58.30
2018-06-27T09:47:50.482Z,57.24
2018-06-27T09:48:50.489Z,57.34
2018-06-27T09:49:50.494Z,56.85
2018-06-27T09:50:50.505Z,56.95
2018-06-27T09:51:50.506Z,56.88
2018-06-27T09:52:50.512Z,56.98
2018-06-27T09:53:50.519Z,56.49
2018-06-27T09:54:50.525Z,56.59
2018-06-27T09:55:50.531Z,57.56
2018-06-27T09:56:50.558Z,58.04
2018-06-27T09:57:50.542Z,58.20
2018-06-27T09:58:50.554Z,58.01
2018-06-27T09:59:50.557Z,58.52
2018-06-27T10:00:50.562Z,58.14
2018-06-27T10:01:50.571Z,58.42
2018-06-27T10:02:50.573Z,57.94
2018-06-27T10:03:50.583Z,57.17
2018-06-27T10:04:50.581Z,57.07
2018-06-27T10:05:50.592Z,57.17
2018-06-27T10:06:50.598Z,57.24
2018-06-27T10:07:50.609Z,58.11
2018-06-27T10:08:50.612Z,57.69
2018-06-27T10:09:50.617Z,58.37
2018-06-27T10:10:50.621Z,58.27
2018-06-27T10:11:50.630Z,58.34
2018-06-27T10:12:50.636Z,58.44
2018-06-27T10:13:50.645Z,58.82
2018-06-27T10:14:50.648Z,59.14
2018-06-27T10:15:50.655Z,59.69
2018-06-27T10:16:50.668Z,58.85
2018-06-27T10:17:50.665Z,58.85
2018-06-27T10:18:50.666Z,58.88
2018-06-27T10:19:50.674Z,58.42
2018-06-27T10:20:50.684Z,58.04
2018-06-27T10:21:50.704Z,56.91
2018-06-27T10:22:50.696Z,57.10
2018-06-27T10:23:50.698Z,56.59
2018-06-27T10:24:50.709Z,56.40
2018-06-27T10:25:50.717Z,55.94
2018-06-27T10:26:50.714Z,55.44
2018-06-27T10:27:50.719Z,55.15
2018-06-27T10:28:50.733Z,53.99
2018-06-27T10:29:50.736Z,53.80
2018-06-27T10:30:50.743Z,53.61
2018-06-27T10:31:50.748Z,53.77
2018-06-27T10:32:50.753Z,53.87
2018-06-27T10:33:50.761Z,54.64
2018-06-27T10:34:50.778Z,54.74
2018-06-27T10:35:50.891Z,55.22
2018-06-27T10:36:50.779Z,55.51
2018-06-27T10:37:50.787Z,56.47
2018-06-27T10:38:50.793Z,56.47
2018-06-27T10:39:50.799Z,56.79
2018-06-27T10:40:50.804Z,55.82
2018-06-27T10:41:50.812Z,55.63
2018-06-27T10:42:50.822Z,55.76
2018-06-27T10:43:50.819Z,55.76
2018-06-27T10:44:50.843Z,55.66
2018-06-27T10:45:50.837Z,55.68
2018-06-27T10:46:50.843Z,54.88
2018-06-27T10:47:50.852Z,55.18
2018-06-27T10:48:50.856Z,55.34
2018-06-27T10:49:50.857Z,55.63
2018-06-27T10:50:50.872Z,56.57
2018-06-27T10:51:50.876Z,56.27
2018-06-27T10:52:50.884Z,56.69
2018-06-27T10:53:50.889Z,55.92
2018-06-27T10:54:50.896Z,55.82
2018-06-27T10:55:50.906Z,55.82
2018-06-27T10:56:50.906Z,55.27
2018-06-27T10:57:50.914Z,54.31
2018-06-27T10:58:50.925Z,54.69
2018-06-27T10:59:50.928Z,53.63
2018-06-27T11:00:50.933Z,53.85
2018-06-27T11:01:50.942Z,52.69
2018-06-27T11:02:50.951Z,52.69
2018-06-27T11:03:50.954Z,52.69
2018-06-27T11:04:50.959Z,52.69
2018-06-27T11:05:51.002Z,52.59
2018-06-27T11:06:50.976Z,52.98
2018-06-27T11:07:50.980Z,53.17
2018-06-27T11:08:50.986Z,52.67
2018-06-27T11:09:50.990Z,52.57
2018-06-27T11:10:51.002Z,52.86
2018-06-27T11:11:51.008Z,54.02
2018-06-27T11:12:51.013Z,53.83
2018-06-27T11:13:51.017Z,53.83
2018-06-27T11:14:51.028Z,53.73
2018-06-27T11:15:51.037Z,53.63
2018-06-27T11:16:51.041Z,55.05
2018-06-27T11:17:51.047Z,54.96
2018-06-27T11:18:51.056Z,55.15
2018-06-27T11:19:51.055Z,55.73
2018-06-27T11:20:51.067Z,55.63
2018-06-27T11:21:51.074Z,55.63
2018-06-27T11:22:51.082Z,55.66
2018-06-27T11:23:51.088Z,55.73
2018-06-27T11:24:51.094Z,55.63
2018-06-27T11:25:51.095Z,56.49
2018-06-27T11:26:51.173Z,55.54
2018-06-27T11:27:51.114Z,56.01
2018-06-27T11:28:51.120Z,55.92
2018-06-27T11:29:51.128Z,55.63
2018-06-27T11:30:51.133Z,55.15
2018-06-27T11:31:51.140Z,55.56
2018-06-27T11:32:51.219Z,54.86
2018-06-27T11:33:51.151Z,54.02
2018-06-27T11:34:51.159Z,53.80
2018-06-27T11:35:51.165Z,53.73
2018-06-27T11:36:51.171Z,53.83
2018-06-27T11:37:51.177Z,53.83
2018-06-27T11:38:51.284Z,53.73
2018-06-27T11:39:51.189Z,53.44
2018-06-27T11:40:51.195Z,53.92
2018-06-27T11:41:51.201Z,53.25
2018-06-27T11:42:51.227Z,53.25
2018-06-27T11:43:51.208Z,53.73
2018-06-27T11:44:51.220Z,53.92
2018-06-27T11:45:51.227Z,53.83
2018-06-27T11:46:51.233Z,53.73
2018-06-27T11:47:51.242Z,53.05
2018-06-27T11:48:51.252Z,53.17
2018-06-27T11:49:51.251Z,53.83
2018-06-27T11:50:51.258Z,54.02
2018-06-27T11:51:51.264Z,54.88
2018-06-27T11:52:51.274Z,53.83
2018-06-27T11:53:51.278Z,54.60
2018-06-27T11:54:51.279Z,54.50
2018-06-27T11:55:51.292Z,54.88
2018-06-27T11:56:51.293Z,54.11
2018-06-27T11:57:51.304Z,54.31
2018-06-27T11:58:51.308Z,53.53
2018-06-27T11:59:51.313Z,53.56
2018-06-27T12:00:51.321Z,53.47
2018-06-27T12:01:51.330Z,53.75
2018-06-27T12:02:51.337Z,53.27
2018-06-27T12:03:51.343Z,53.66
2018-06-27T12:04:51.349Z,52.91
2018-06-27T12:05:51.356Z,52.91
2018-06-27T12:06:51.364Z,52.72
2018-06-27T12:07:51.371Z,52.84
2018-06-27T12:08:51.378Z,51.68
2018-06-27T12:09:51.385Z,52.07
2018-06-27T12:10:51.392Z,52.26
2018-06-27T12:11:51.399Z,51.49
2018-06-27T12:12:51.405Z,51.01
2018-06-27T12:13:51.414Z,50.91
2018-06-27T12:14:51.416Z,50.91
2018-06-27T12:15:51.430Z,51.49
2018-06-27T12:16:51.457Z,51.49
2018-06-27T12:17:51.441Z,51.78
2018-06-27T12:18:51.449Z,51.10
2018-06-27T12:19:51.458Z,50.91
2018-06-27T12:20:51.465Z,51.29
2018-06-27T12:21:51.471Z,51.59
2018-06-27T12:22:51.479Z,51.59
2018-06-27T12:23:51.492Z,52.04
2018-06-27T12:24:51.494Z,52.40
2018-06-27T12:25:51.503Z,52.89
2018-06-27T12:26:51.509Z,53.05
2018-06-27T12:27:51.517Z,52.37
2018-06-27T12:28:51.524Z,51.97
2018-06-27T12:29:51.531Z,52.55
2018-06-27T12:30:51.538Z,52.93
2018-06-27T12:31:51.545Z,52.64
2018-06-27T12:32:51.555Z,53.34
2018-06-27T12:33:51.558Z,53.05
2018-06-27T12:34:51.568Z,53.15
2018-06-27T12:35:51.575Z,53.37
2018-06-27T12:36:51.579Z,52.98
2018-06-27T12:37:51.587Z,53.08
2018-06-27T12:38:51.591Z,52.98
2018-06-27T12:39:51.600Z,52.98
2018-06-27T12:40:51.603Z,52.11
2018-06-27T12:41:51.612Z,51.44
2018-06-27T12:42:51.622Z,52.01
2018-06-27T12:43:51.625Z,51.44
2018-06-27T12:44:51.631Z,52.11
2018-06-27T12:45:51.634Z,52.11
2018-06-27T12:46:51.647Z,52.40
2018-06-27T12:47:51.653Z,52.50
2018-06-27T12:48:51.659Z,52.98
2018-06-27T12:49:51.678Z,53.05
2018-06-27T12:50:51.674Z,53.53
2018-06-27T12:51:51.681Z,53.63
2018-06-27T12:52:51.688Z,54.02